Time;durP1;ratioP1;P1;durP2;ratioP2;P2;SDS_P1;SDS_P2;PMS_P1;PMS_P2;Temp;Humidity;BMP_temperature;BMP_pressure;BME280_temperature;BME280_humidity;BME280_pressure;Samples;Min_cycle;Max_cycle;Signal;HPM_P1;HPM_P2
2022/06/26 00:00:07;;;;;;;1.60;1.50;;;;;;;;;;5021920;28;20163;-69
2022/06/26 00:02:34;;;;;;;4.85;1.75;;;;;;;;;;5021595;28;20038;-69
2022/06/26 00:04:59;;;;;;;2.78;1.45;;;;;;;;;;5021131;28;20087;-69
2022/06/26 00:07:25;;;;;;;5.38;1.60;;;;;;;;;;5021328;28;20668;-71
2022/06/26 00:09:50;;;;;;;2.05;1.60;;;;;;;;;;5021862;28;20037;-69
2022/06/26 00:12:16;;;;;;;1.95;1.50;;;;;;;;;;5021963;28;20037;-72
2022/06/26 00:14:41;;;;;;;2.00;1.70;;;;;;;;;;5020313;28;20041;-75
2022/06/26 00:17:07;;;;;;;1.80;1.70;;;;;;;;;;5021010;28;20041;-71
2022/06/26 00:19:33;;;;;;;3.67;2.20;;;;;;;;;;5020225;28;21195;-72
2022/06/26 00:21:58;;;;;;;1.75;1.60;;;;;;;;;;5021773;28;20521;-69
2022/06/26 00:24:24;;;;;;;2.50;1.55;;;;;;;;;;5021371;28;20472;-70
2022/06/26 00:26:49;;;;;;;2.22;1.92;;;;;;;;;;5020030;28;20108;-72
2022/06/26 00:29:15;;;;;;;2.95;1.80;;;;;;;;;;5021166;28;20487;-70
2022/06/26 00:31:41;;;;;;;6.45;1.70;;;;;;;;;;5020116;28;20044;-70
2022/06/26 00:34:06;;;;;;;3.42;1.83;;;;;;;;;;5011853;28;20064;-71
2022/06/26 00:36:32;;;;;;;3.10;2.00;;;;;;;;;;5018816;28;20037;-70
2022/06/26 00:38:57;;;;;;;2.25;1.83;;;;;;;;;;5016866;28;20120;-69
2022/06/26 00:41:23;;;;;;;3.50;1.98;;;;;;;;;;5016179;28;20041;-70
2022/06/26 00:43:48;;;;;;;1.98;1.80;;;;;;;;;;5018896;28;20060;-71
2022/06/26 00:46:14;;;;;;;2.75;2.08;;;;;;;;;;5020558;28;20063;-73
2022/06/26 00:48:39;;;;;;;4.70;2.00;;;;;;;;;;5017440;28;20215;-69
2022/06/26 00:51:05;;;;;;;7.32;2.10;;;;;;;;;;5021071;28;20041;-72
2022/06/26 00:53:31;;;;;;;2.67;1.92;;;;;;;;;;5021157;28;20422;-69
2022/06/26 00:55:57;;;;;;;3.13;1.65;;;;;;;;;;5019548;28;20038;-72
2022/06/26 00:58:22;;;;;;;1.80;1.60;;;;;;;;;;5019366;28;20035;-71
2022/06/26 01:00:48;;;;;;;2.95;1.92;;;;;;;;;;5020584;28;20139;-69
2022/06/26 01:03:14;;;;;;;5.60;2.30;;;;;;;;;;5019707;28;20037;-71
2022/06/26 01:05:39;;;;;;;2.20;1.95;;;;;;;;;;5020670;28;20034;-71
2022/06/26 01:08:07;;;;;;;2.58;2.10;;;;;;;;;;5020252;28;20040;-70
2022/06/26 01:10:33;;;;;;;2.25;1.70;;;;;;;;;;5011039;28;21185;-69
2022/06/26 01:13:00;;;;;;;3.80;2.05;;;;;;;;;;5020914;28;20044;-72
2022/06/26 01:15:27;;;;;;;3.25;1.95;;;;;;;;;;5019563;28;20041;-69
2022/06/26 01:17:54;;;;;;;2.20;2.00;;;;;;;;;;5018768;28;20033;-70
2022/06/26 01:20:19;;;;;;;4.32;2.22;;;;;;;;;;5018790;28;20045;-72
2022/06/26 01:22:55;;;;;;;2.60;2.00;;;;;;;;;;5002957;28;20037;-69
2022/06/26 01:25:20;;;;;;;3.38;1.90;;;;;;;;;;5011358;28;20041;-69
2022/06/26 01:27:46;;;;;;;2.38;1.85;;;;;;;;;;5002311;28;20037;-69
2022/06/26 01:30:15;;;;;;;2.97;1.92;;;;;;;;;;5018695;28;20102;-69
2022/06/26 01:32:42;;;;;;;2.00;1.80;;;;;;;;;;5019311;28;20065;-69
2022/06/26 01:35:07;;;;;;;2.05;1.95;;;;;;;;;;5020698;28;20033;-71
2022/06/26 01:37:35;;;;;;;3.88;1.90;;;;;;;;;;5019049;28;20051;-69
2022/06/26 01:40:00;;;;;;;2.90;1.80;;;;;;;;;;5019225;28;20505;-70
2022/06/26 01:42:26;;;;;;;3.78;2.00;;;;;;;;;;5018557;28;20037;-69
2022/06/26 01:44:51;;;;;;;2.17;1.80;;;;;;;;;;5021630;28;20037;-71
2022/06/26 01:47:19;;;;;;;3.75;1.80;;;;;;;;;;5022779;28;20029;-69
2022/06/26 01:49:45;;;;;;;1.80;1.55;;;;;;;;;;5022726;28;20079;-71
2022/06/26 01:52:10;;;;;;;2.08;1.88;;;;;;;;;;5023599;28;20033;-73
2022/06/26 01:54:36;;;;;;;2.65;1.50;;;;;;;;;;5022483;28;20045;-70
2022/06/26 01:57:01;;;;;;;1.88;1.55;;;;;;;;;;5015593;28;20103;-70
2022/06/26 01:59:27;;;;;;;2.10;1.48;;;;;;;;;;5022948;28;20037;-70
2022/06/26 02:01:53;;;;;;;2.53;1.67;;;;;;;;;;5022878;28;20107;-69
2022/06/26 02:04:18;;;;;;;2.47;1.60;;;;;;;;;;5022126;28;20850;-69
2022/06/26 02:06:44;;;;;;;4.78;1.50;;;;;;;;;;5021870;28;20037;-72
2022/06/26 02:14:45;;;;;;;1.83;1.73;;;;;;;;;;5021554;28;20099;-67
2022/06/26 02:17:11;;;;;;;4.10;2.10;;;;;;;;;;5021433;28;20045;-68
2022/06/26 02:19:36;;;;;;;2.85;1.65;;;;;;;;;;5022435;28;20037;-68
2022/06/26 02:22:02;;;;;;;2.45;2.00;;;;;;;;;;5023764;28;20033;-68
2022/06/26 02:24:28;;;;;;;3.45;1.73;;;;;;;;;;5018864;28;20083;-68
2022/06/26 02:26:53;;;;;;;1.85;1.70;;;;;;;;;;5020932;28;20045;-67
2022/06/26 02:29:19;;;;;;;3.00;1.88;;;;;;;;;;5021352;28;20037;-68
2022/06/26 02:31:44;;;;;;;4.72;1.92;;;;;;;;;;5023393;28;20041;-68
2022/06/26 02:34:09;;;;;;;2.30;2.10;;;;;;;;;;5021928;28;20033;-69
2022/06/26 02:36:35;;;;;;;2.58;2.00;;;;;;;;;;5018640;28;20041;-67
2022/06/26 02:39:02;;;;;;;2.35;2.00;;;;;;;;;;5022159;28;20033;-69
2022/06/26 02:41:27;;;;;;;1.90;1.80;;;;;;;;;;5022252;28;20033;-69
2022/06/26 02:43:56;;;;;;;2.30;2.15;;;;;;;;;;5021681;28;20030;-68
2022/06/26 02:46:21;;;;;;;2.22;1.80;;;;;;;;;;5023316;28;20037;-68
2022/06/26 02:48:48;;;;;;;5.30;2.10;;;;;;;;;;5004338;28;20037;-69
2022/06/26 02:51:15;;;;;;;2.15;2.05;;;;;;;;;;5021195;28;20035;-69
2022/06/26 02:53:41;;;;;;;2.25;2.05;;;;;;;;;;5022188;28;20033;-68
2022/06/26 02:56:06;;;;;;;2.10;2.00;;;;;;;;;;5021421;28;20128;-68
2022/06/26 02:58:33;;;;;;;3.13;2.17;;;;;;;;;;5020803;28;20056;-67
2022/06/26 03:01:01;;;;;;;2.65;1.70;;;;;;;;;;5018729;28;20120;-68
2022/06/26 03:03:26;;;;;;;3.70;1.70;;;;;;;;;;5021919;28;20144;-68
2022/06/26 03:05:52;;;;;;;2.15;1.90;;;;;;;;;;5021780;28;20548;-68
2022/06/26 03:08:23;;;;;;;1.80;1.70;;;;;;;;;;5021374;28;20087;-69
2022/06/26 03:10:50;;;;;;;5.57;1.75;;;;;;;;;;5020457;28;20464;-71
2022/06/26 03:13:16;;;;;;;3.25;1.65;;;;;;;;;;5021721;28;20108;-71
2022/06/26 03:15:43;;;;;;;1.90;1.60;;;;;;;;;;5021181;28;20044;-69
2022/06/26 03:18:10;;;;;;;2.35;1.65;;;;;;;;;;5021007;28;20026;-70
2022/06/26 03:20:36;;;;;;;6.95;2.00;;;;;;;;;;5020689;28;20033;-70
2022/06/26 03:23:02;;;;;;;3.42;2.22;;;;;;;;;;5022596;28;20056;-73
2022/06/26 03:25:28;;;;;;;4.13;2.30;;;;;;;;;;5021180;28;20121;-73
2022/06/26 03:27:53;;;;;;;3.47;2.15;;;;;;;;;;5020691;28;20045;-70
2022/06/26 03:30:20;;;;;;;2.20;1.98;;;;;;;;;;5021289;28;20919;-72
2022/06/26 03:32:48;;;;;;;4.35;2.03;;;;;;;;;;5020270;28;21115;-73
2022/06/26 03:35:14;;;;;;;6.95;1.88;;;;;;;;;;5020707;28;20072;-70
2022/06/26 03:37:39;;;;;;;4.70;1.70;;;;;;;;;;5020743;28;21099;-69
2022/06/26 03:40:07;;;;;;;3.30;1.90;;;;;;;;;;5021128;28;20037;-71
2022/06/26 03:42:32;;;;;;;2.30;1.85;;;;;;;;;;5020136;28;20041;-70
2022/06/26 03:44:58;;;;;;;10.48;2.15;;;;;;;;;;5020854;28;20033;-70
2022/06/26 03:47:23;;;;;;;4.15;2.05;;;;;;;;;;5021567;28;20041;-68
2022/06/26 03:49:53;;;;;;;1.95;1.80;;;;;;;;;;5020791;28;20152;-69
2022/06/26 03:52:23;;;;;;;6.43;2.47;;;;;;;;;;5037390;28;20056;-69
2022/06/26 03:54:54;;;;;;;2.85;2.03;;;;;;;;;;5019429;28;20103;-69
2022/06/26 03:57:22;;;;;;;4.93;2.10;;;;;;;;;;5017557;28;20041;-69
2022/06/26 03:59:50;;;;;;;2.63;2.03;;;;;;;;;;5017686;28;20131;-69
2022/06/26 04:02:41;;;;;;;3.88;1.92;;;;;;;;;;5021794;28;20045;-69
2022/06/26 04:05:07;;;;;;;4.03;1.70;;;;;;;;;;5017876;28;20120;-69
2022/06/26 04:07:33;;;;;;;6.30;2.00;;;;;;;;;;5019133;28;20048;-69
2022/06/26 04:10:12;;;;;;;4.43;1.90;;;;;;;;;;5020100;28;20239;-69
2022/06/26 04:12:38;;;;;;;3.92;1.88;;;;;;;;;;5022180;28;20583;-69
2022/06/26 04:15:04;;;;;;;3.22;1.92;;;;;;;;;;5020210;28;20032;-69
2022/06/26 04:17:31;;;;;;;4.05;2.10;;;;;;;;;;5019209;28;20064;-69
2022/06/26 04:20:06;;;;;;;6.40;1.80;;;;;;;;;;5019852;28;20048;-69
2022/06/26 04:22:32;;;;;;;4.88;1.80;;;;;;;;;;5020089;28;20945;-69
2022/06/26 04:24:58;;;;;;;5.75;2.22;;;;;;;;;;5018369;28;20041;-69
2022/06/26 04:27:23;;;;;;;5.38;1.70;;;;;;;;;;5018215;28;20512;-69
2022/06/26 04:29:48;;;;;;;3.20;1.90;;;;;;;;;;5019706;28;20580;-69
2022/06/26 04:32:14;;;;;;;2.90;1.92;;;;;;;;;;5019766;28;20194;-69
2022/06/26 04:34:42;;;;;;;2.22;1.80;;;;;;;;;;5019878;28;20056;-69
2022/06/26 04:37:08;;;;;;;4.47;2.08;;;;;;;;;;5016169;28;20498;-69
2022/06/26 04:39:33;;;;;;;4.03;2.25;;;;;;;;;;5021130;28;20139;-69
2022/06/26 04:42:03;;;;;;;3.80;2.10;;;;;;;;;;5019973;28;20041;-69
2022/06/26 04:44:29;;;;;;;7.55;2.00;;;;;;;;;;5020056;28;20132;-69
2022/06/26 04:46:56;;;;;;;8.55;1.77;;;;;;;;;;5019163;28;21074;-69
2022/06/26 04:49:27;;;;;;;2.60;1.83;;;;;;;;;;5019137;28;20067;-69
2022/06/26 04:51:52;;;;;;;3.35;1.70;;;;;;;;;;5019852;28;20068;-69
2022/06/26 04:54:29;;;;;;;3.38;1.90;;;;;;;;;;5019917;28;20029;-69
2022/06/26 04:56:55;;;;;;;2.60;1.77;;;;;;;;;;5019046;28;20064;-69
2022/06/26 04:59:20;;;;;;;2.95;1.83;;;;;;;;;;5019139;28;21046;-69
2022/06/26 05:01:46;;;;;;;2.90;2.10;;;;;;;;;;5019209;28;20033;-69
2022/06/26 05:04:34;;;;;;;4.68;2.03;;;;;;;;;;5020639;28;20433;-69
2022/06/26 05:07:32;;;;;;;2.35;1.88;;;;;;;;;;5012125;28;20153;-70
2022/06/26 05:09:58;;;;;;;1.92;1.83;;;;;;;;;;5019619;28;20091;-72
2022/06/26 05:12:24;;;;;;;1.60;1.50;;;;;;;;;;5018444;28;20532;-71
2022/06/26 05:15:09;;;;;;;1.98;1.52;;;;;;;;;;5020640;28;20576;-70
2022/06/26 05:17:43;;;;;;;6.47;1.63;;;;;;;;;;5019098;28;20033;-72
2022/06/26 05:20:09;;;;;;;2.00;1.58;;;;;;;;;;5023253;28;20517;-69
2022/06/26 05:22:35;;;;;;;2.63;1.65;;;;;;;;;;5022975;28;20161;-70
2022/06/26 05:25:00;;;;;;;1.85;1.70;;;;;;;;;;5021157;28;20136;-69
2022/06/26 05:27:27;;;;;;;3.95;2.13;;;;;;;;;;5022636;28;20502;-70
2022/06/26 05:29:53;;;;;;;2.13;1.67;;;;;;;;;;5023321;28;20090;-70
2022/06/26 05:32:18;;;;;;;6.13;1.55;;;;;;;;;;5022908;28;20036;-72
2022/06/26 05:34:45;;;;;;;4.30;1.70;;;;;;;;;;5023163;28;20120;-69
2022/06/26 05:37:12;;;;;;;6.00;1.90;;;;;;;;;;5022621;28;20039;-69
2022/06/26 05:39:37;;;;;;;7.55;1.70;;;;;;;;;;5023721;28;20106;-70
2022/06/26 05:42:05;;;;;;;1.75;1.60;;;;;;;;;;5023384;28;20063;-70
2022/06/26 05:44:30;;;;;;;8.38;1.92;;;;;;;;;;5022475;28;20398;-72
2022/06/26 05:47:00;;;;;;;2.38;1.90;;;;;;;;;;5022675;28;20120;-70
2022/06/26 05:49:48;;;;;;;1.83;1.50;;;;;;;;;;5006589;28;20349;-70
2022/06/26 05:52:34;;;;;;;7.40;2.33;;;;;;;;;;5021030;28;20033;-69
2022/06/26 05:55:21;;;;;;;2.10;1.58;;;;;;;;;;5020391;28;20646;-69
2022/06/26 05:58:06;;;;;;;3.83;1.70;;;;;;;;;;5015212;28;20064;-69
2022/06/26 06:00:55;;;;;;;1.40;1.30;;;;;;;;;;5020294;28;20041;-69
2022/06/26 06:03:20;;;;;;;5.85;1.42;;;;;;;;;;5021770;28;20036;-69
2022/06/26 06:05:51;;;;;;;1.48;1.38;;;;;;;;;;5019823;28;20052;-71
2022/06/26 06:08:17;;;;;;;2.00;1.63;;;;;;;;;;5020989;28;20037;-70
2022/06/26 06:10:43;;;;;;;1.63;1.40;;;;;;;;;;5022408;28;20187;-70
2022/06/26 06:13:09;;;;;;;2.58;1.45;;;;;;;;;;5021521;28;20132;-72
2022/06/26 06:15:34;;;;;;;1.42;1.33;;;;;;;;;;5020441;28;20053;-72
2022/06/26 06:18:00;;;;;;;2.72;1.40;;;;;;;;;;5021526;28;20078;-69
2022/06/26 06:20:25;;;;;;;2.95;1.40;;;;;;;;;;5019887;28;20517;-71
2022/06/26 06:23:02;;;;;;;3.17;1.35;;;;;;;;;;5021074;28;20063;-72
2022/06/26 06:25:28;;;;;;;3.65;1.73;;;;;;;;;;5021911;28;20108;-69
2022/06/26 06:27:53;;;;;;;2.95;1.20;;;;;;;;;;5019503;28;20037;-69
2022/06/26 06:30:25;;;;;;;3.85;1.35;;;;;;;;;;5020009;28;20120;-72
2022/06/26 06:32:52;;;;;;;3.80;1.20;;;;;;;;;;5020627;28;20029;-72
2022/06/26 06:35:28;;;;;;;1.50;1.40;;;;;;;;;;5019770;28;20037;-73
2022/06/26 06:37:54;;;;;;;8.40;1.50;;;;;;;;;;5018314;28;20047;-70
2022/06/26 06:40:21;;;;;;;1.42;1.33;;;;;;;;;;5002045;28;20033;-69
2022/06/26 06:42:47;;;;;;;2.42;1.30;;;;;;;;;;5009600;28;20108;-71
2022/06/26 06:45:13;;;;;;;4.28;1.20;;;;;;;;;;5020716;28;20128;-69
2022/06/26 06:47:55;;;;;;;3.05;1.20;;;;;;;;;;5019328;28;20038;-69
2022/06/26 06:50:40;;;;;;;2.30;1.25;;;;;;;;;;5020182;28;20045;-69
2022/06/26 06:53:07;;;;;;;2.33;1.00;;;;;;;;;;5018401;28;20076;-69
2022/06/26 06:55:32;;;;;;;2.65;1.17;;;;;;;;;;5019757;28;20072;-68
2022/06/26 06:57:58;;;;;;;3.17;1.17;;;;;;;;;;5020905;28;20021;-68
2022/06/26 07:00:24;;;;;;;1.10;1.08;;;;;;;;;;5020599;28;20634;-67
2022/06/26 07:02:50;;;;;;;2.25;0.90;;;;;;;;;;5021679;28;20060;-68
2022/06/26 07:05:19;;;;;;;1.27;0.98;;;;;;;;;;5021111;28;20035;-68
2022/06/26 07:07:45;;;;;;;1.20;1.10;;;;;;;;;;5020190;28;20637;-69
2022/06/26 07:10:11;;;;;;;1.30;1.20;;;;;;;;;;5021433;28;20757;-68
2022/06/26 07:12:36;;;;;;;2.30;1.13;;;;;;;;;;5020352;28;20040;-68
2022/06/26 07:15:03;;;;;;;1.00;1.00;;;;;;;;;;5021475;28;20438;-69
2022/06/26 07:17:29;;;;;;;1.27;1.17;;;;;;;;;;5020701;28;20061;-68
2022/06/26 07:19:55;;;;;;;2.05;1.10;;;;;;;;;;5019113;28;20072;-69
2022/06/26 07:22:21;;;;;;;1.05;1.05;;;;;;;;;;5019536;28;20061;-68
2022/06/26 07:24:48;;;;;;;3.70;1.00;;;;;;;;;;5021065;28;20044;-69
2022/06/26 07:27:30;;;;;;;6.05;1.10;;;;;;;;;;5020253;28;20037;-68
2022/06/26 07:29:55;;;;;;;1.27;1.02;;;;;;;;;;5020613;28;20047;-68
2022/06/26 07:32:21;;;;;;;1.60;1.20;;;;;;;;;;5016018;28;20037;-69
2022/06/26 07:34:50;;;;;;;5.28;1.17;;;;;;;;;;5016533;28;20041;-69
2022/06/26 07:37:17;;;;;;;2.63;1.10;;;;;;;;;;5015719;28;20064;-68
2022/06/26 07:39:43;;;;;;;2.30;1.00;;;;;;;;;;5016287;28;20069;-69
2022/06/26 07:42:10;;;;;;;5.28;1.00;;;;;;;;;;5015482;28;20124;-68
2022/06/26 07:44:38;;;;;;;5.03;1.08;;;;;;;;;;5015330;28;20037;-66
2022/06/26 07:47:03;;;;;;;2.28;0.93;;;;;;;;;;5015514;28;20504;-66
2022/06/26 07:49:56;;;;;;;1.15;1.05;;;;;;;;;;5015948;28;20478;-67
2022/06/26 07:52:21;;;;;;;4.07;1.20;;;;;;;;;;5017664;28;20044;-68
2022/06/26 07:54:47;;;;;;;0.82;0.82;;;;;;;;;;5017367;28;20033;-68
2022/06/26 07:57:12;;;;;;;3.03;1.15;;;;;;;;;;5016357;28;20041;-68
2022/06/26 07:59:38;;;;;;;2.63;1.33;;;;;;;;;;5013628;28;20076;-68
2022/06/26 08:02:04;;;;;;;2.28;0.98;;;;;;;;;;5017520;28;20033;-68
2022/06/26 08:04:30;;;;;;;1.38;1.20;;;;;;;;;;5016252;28;20041;-67
2022/06/26 08:06:55;;;;;;;4.38;1.00;;;;;;;;;;5016269;28;20037;-67
2022/06/26 08:09:21;;;;;;;2.33;1.27;;;;;;;;;;5014784;28;20120;-69
2022/06/26 08:11:46;;;;;;;2.60;0.95;;;;;;;;;;5016024;28;20037;-67
2022/06/26 08:14:12;;;;;;;7.78;1.10;;;;;;;;;;5017046;28;20065;-67
2022/06/26 08:16:37;;;;;;;1.75;1.30;;;;;;;;;;5017059;28;20083;-69
2022/06/26 08:19:03;;;;;;;1.02;0.93;;;;;;;;;;5015807;28;20047;-69
2022/06/26 08:24:12;;;;;;;1.23;1.13;;;;;;;;;;5016658;28;20048;-71
2022/06/26 08:26:38;;;;;;;1.08;1.08;;;;;;;;;;5015681;28;20049;-67
2022/06/26 08:29:03;;;;;;;1.33;0.98;;;;;;;;;;5015359;28;20021;-68
2022/06/26 08:31:30;;;;;;;1.85;1.25;;;;;;;;;;5016934;28;20140;-67
2022/06/26 08:33:55;;;;;;;1.10;1.00;;;;;;;;;;5016696;28;20112;-69
2022/06/26 08:36:21;;;;;;;2.50;1.10;;;;;;;;;;5016682;28;20033;-69
2022/06/26 08:38:46;;;;;;;2.15;1.20;;;;;;;;;;5016434;28;20210;-69
2022/06/26 08:41:13;;;;;;;1.30;1.20;;;;;;;;;;5015886;28;20797;-67
2022/06/26 08:43:40;;;;;;;2.15;0.90;;;;;;;;;;5017053;28;20417;-68
2022/06/26 08:46:06;;;;;;;1.13;1.05;;;;;;;;;;5016231;28;20784;-67
2022/06/26 08:48:41;;;;;;;1.17;1.00;;;;;;;;;;5014560;28;20037;-67
2022/06/26 08:51:07;;;;;;;1.30;1.17;;;;;;;;;;5013407;28;20079;-65
2022/06/26 08:53:34;;;;;;;1.50;1.30;;;;;;;;;;5015501;28;20628;-66
2022/06/26 08:56:00;;;;;;;1.40;1.30;;;;;;;;;;5015859;28;20052;-69
2022/06/26 08:58:26;;;;;;;1.30;1.20;;;;;;;;;;5018070;28;20088;-69
2022/06/26 09:00:51;;;;;;;1.10;1.10;;;;;;;;;;5021080;28;20041;-70
2022/06/26 09:03:17;;;;;;;2.08;1.30;;;;;;;;;;5002391;28;20040;-69
2022/06/26 09:05:42;;;;;;;2.25;1.02;;;;;;;;;;5020750;28;20037;-69
2022/06/26 09:08:17;;;;;;;1.45;0.80;;;;;;;;;;5019381;28;20041;-68
2022/06/26 09:10:44;;;;;;;1.00;1.00;;;;;;;;;;5020857;28;20048;-68
2022/06/26 09:13:10;;;;;;;0.80;0.80;;;;;;;;;;5020199;28;20041;-69
2022/06/26 09:15:39;;;;;;;0.93;0.90;;;;;;;;;;5020113;28;20029;-69
2022/06/26 09:18:05;;;;;;;1.85;0.95;;;;;;;;;;5019941;28;20041;-68
2022/06/26 09:20:34;;;;;;;1.17;1.08;;;;;;;;;;5020727;28;20045;-68
2022/06/26 09:23:01;;;;;;;1.60;0.90;;;;;;;;;;5020104;28;20033;-70
2022/06/26 09:25:35;;;;;;;1.17;1.10;;;;;;;;;;5019428;28;20897;-70
2022/06/26 09:28:08;;;;;;;1.60;0.90;;;;;;;;;;5020015;28;20192;-70
2022/06/26 09:30:33;;;;;;;0.88;0.88;;;;;;;;;;5019427;28;20076;-69
2022/06/26 09:33:01;;;;;;;4.95;1.17;;;;;;;;;;5020394;28;20061;-70
2022/06/26 09:35:27;;;;;;;1.90;0.88;;;;;;;;;;5016739;28;20534;-70
2022/06/26 09:37:52;;;;;;;1.23;0.98;;;;;;;;;;5018747;28;20046;-69
2022/06/26 09:40:17;;;;;;;1.42;0.75;;;;;;;;;;5018174;28;20036;-70
2022/06/26 09:42:43;;;;;;;2.67;0.88;;;;;;;;;;5018874;28;20688;-70
2022/06/26 09:45:10;;;;;;;2.00;1.23;;;;;;;;;;5015884;28;20572;-70
2022/06/26 09:47:35;;;;;;;1.02;0.93;;;;;;;;;;5019311;28;20095;-68
2022/06/26 09:50:04;;;;;;;1.23;1.13;;;;;;;;;;5019071;28;20033;-70
2022/06/26 09:52:32;;;;;;;3.65;1.02;;;;;;;;;;5019197;28;20500;-69
2022/06/26 09:55:00;;;;;;;0.82;0.82;;;;;;;;;;5020007;28;20040;-69
2022/06/26 09:57:27;;;;;;;2.15;1.00;;;;;;;;;;5019144;28;20051;-70
2022/06/26 09:59:53;;;;;;;4.32;0.90;;;;;;;;;;5019989;28;20048;-70
2022/06/26 10:07:52;;;;;;;3.42;0.90;;;;;;;;;;5008949;28;20038;-70
2022/06/26 10:10:21;;;;;;;1.08;0.95;;;;;;;;;;5023504;28;20021;-72
2022/06/26 10:12:52;;;;;;;0.85;0.80;;;;;;;;;;5023777;28;20102;-71
2022/06/26 10:15:18;;;;;;;1.13;0.80;;;;;;;;;;5023483;28;20049;-70
2022/06/26 10:18:35;;;;;;;1.63;0.88;;;;;;;;;;5020248;28;20044;-71
2022/06/26 10:21:08;;;;;;;2.50;1.88;;;;;;;;;;5006041;28;20053;-72
2022/06/26 10:23:35;;;;;;;1.15;1.05;;;;;;;;;;5023532;28;20119;-71
2022/06/26 10:26:21;;;;;;;2.80;0.90;;;;;;;;;;5023470;28;20072;-71
2022/06/26 10:28:59;;;;;;;1.35;1.08;;;;;;;;;;5021860;28;20064;-70
2022/06/26 10:31:24;;;;;;;1.17;1.08;;;;;;;;;;5021108;28;20037;-71
2022/06/26 10:33:50;;;;;;;1.85;1.00;;;;;;;;;;5022408;28;20048;-70
2022/06/26 10:36:23;;;;;;;1.20;1.10;;;;;;;;;;5021697;28;20124;-73
2022/06/26 10:38:49;;;;;;;1.98;1.10;;;;;;;;;;5021307;28;20070;-70
2022/06/26 10:44:03;;;;;;;1.23;0.90;;;;;;;;;;5022056;28;20131;-73
2022/06/26 10:46:49;;;;;;;1.73;0.80;;;;;;;;;;5021968;28;20045;-73
2022/06/26 10:49:15;;;;;;;1.02;0.77;;;;;;;;;;5022715;28;20120;-72
2022/06/26 10:51:42;;;;;;;1.50;0.80;;;;;;;;;;5021998;28;20116;-73
2022/06/26 10:54:18;;;;;;;1.10;0.80;;;;;;;;;;5021583;28;20045;-72
2022/06/26 10:56:46;;;;;;;1.65;0.75;;;;;;;;;;5022967;28;20048;-70
2022/06/26 10:59:15;;;;;;;0.70;0.70;;;;;;;;;;5021189;28;20137;-70
2022/06/26 11:01:41;;;;;;;0.70;0.70;;;;;;;;;;5021207;28;20686;-70
2022/06/26 11:04:06;;;;;;;1.73;0.88;;;;;;;;;;5022042;28;20049;-70
2022/06/26 11:06:38;;;;;;;2.40;0.98;;;;;;;;;;5023096;28;20532;-69
2022/06/26 11:09:03;;;;;;;1.10;1.00;;;;;;;;;;5022474;28;20136;-71
2022/06/26 11:11:31;;;;;;;0.80;0.80;;;;;;;;;;5023147;28;20136;-71
2022/06/26 11:13:59;;;;;;;1.02;0.80;;;;;;;;;;5022446;28;20063;-70
2022/06/26 11:16:45;;;;;;;0.80;0.80;;;;;;;;;;5021189;28;20068;-72
2022/06/26 11:22:27;;;;;;;0.70;0.70;;;;;;;;;;5018788;28;20128;-70
2022/06/26 11:24:55;;;;;;;0.70;0.70;;;;;;;;;;5021221;28;20042;-72
2022/06/26 11:27:21;;;;;;;1.02;1.00;;;;;;;;;;5021721;28;20938;-70
2022/06/26 11:29:47;;;;;;;0.85;0.85;;;;;;;;;;5021367;28;20163;-71
2022/06/26 11:32:12;;;;;;;4.22;0.95;;;;;;;;;;5021729;28;20151;-71
2022/06/26 11:34:47;;;;;;;0.63;0.63;;;;;;;;;;5022804;28;20076;-71
2022/06/26 11:37:13;;;;;;;1.92;0.80;;;;;;;;;;5020925;28;20048;-70
2022/06/26 11:39:40;;;;;;;1.33;0.85;;;;;;;;;;5016815;28;20033;-70
2022/06/26 11:42:21;;;;;;;0.77;0.77;;;;;;;;;;5021638;28;20037;-71
2022/06/26 11:44:52;;;;;;;1.13;0.80;;;;;;;;;;5021827;28;20061;-71
2022/06/26 11:47:20;;;;;;;0.50;0.50;;;;;;;;;;5021088;28;20042;-70
2022/06/26 11:49:46;;;;;;;1.40;0.80;;;;;;;;;;5020640;28;20116;-70
2022/06/26 11:52:12;;;;;;;1.27;0.75;;;;;;;;;;5021850;28;20133;-70
2022/06/26 11:54:38;;;;;;;2.28;0.70;;;;;;;;;;5020964;28;20044;-71
2022/06/26 11:57:05;;;;;;;0.50;0.50;;;;;;;;;;5020793;28;20037;-71
2022/06/26 11:59:31;;;;;;;0.95;0.73;;;;;;;;;;5018891;28;20037;-70
2022/06/26 12:01:56;;;;;;;0.80;0.80;;;;;;;;;;5020597;28;20044;-71
2022/06/26 12:04:21;;;;;;;1.10;0.70;;;;;;;;;;5019985;28;20086;-71
2022/06/26 12:06:50;;;;;;;0.70;0.70;;;;;;;;;;5019951;28;20056;-71
2022/06/26 12:09:25;;;;;;;1.40;0.77;;;;;;;;;;5018167;28;20052;-70
2022/06/26 12:11:56;;;;;;;2.25;0.70;;;;;;;;;;5020877;28;20291;-71
2022/06/26 12:14:24;;;;;;;0.63;0.63;;;;;;;;;;5021504;28;20044;-70
2022/06/26 12:16:55;;;;;;;0.70;0.68;;;;;;;;;;5020973;28;20153;-71
2022/06/26 12:19:22;;;;;;;0.60;0.60;;;;;;;;;;5020127;28;20060;-70
2022/06/26 12:21:50;;;;;;;1.05;0.55;;;;;;;;;;5021149;28;20052;-71
2022/06/26 12:24:18;;;;;;;0.77;0.60;;;;;;;;;;5020949;28;20045;-71
2022/06/26 12:26:44;;;;;;;1.48;0.85;;;;;;;;;;5021234;28;20052;-70
2022/06/26 12:29:14;;;;;;;0.68;0.63;;;;;;;;;;5020169;28;20741;-70
2022/06/26 12:31:41;;;;;;;2.35;0.80;;;;;;;;;;5020303;28;20029;-71
2022/06/26 12:34:08;;;;;;;0.50;0.50;;;;;;;;;;5021168;28;20045;-70
2022/06/26 12:36:33;;;;;;;1.15;0.60;;;;;;;;;;5017588;28;20037;-71
2022/06/26 12:39:00;;;;;;;0.60;0.52;;;;;;;;;;5018714;28;20060;-71
2022/06/26 12:41:25;;;;;;;2.78;0.60;;;;;;;;;;5019381;28;20230;-71
2022/06/26 12:43:53;;;;;;;0.50;0.50;;;;;;;;;;5018040;28;20049;-70
2022/06/26 12:46:19;;;;;;;1.08;0.52;;;;;;;;;;5018220;28;20124;-70
2022/06/26 12:48:45;;;;;;;0.50;0.50;;;;;;;;;;5017577;28;20467;-70
2022/06/26 12:51:11;;;;;;;0.50;0.50;;;;;;;;;;5018516;28;20086;-70
2022/06/26 12:53:37;;;;;;;0.80;0.55;;;;;;;;;;5017944;28;20053;-70
2022/06/26 12:56:03;;;;;;;0.50;0.50;;;;;;;;;;5018261;28;20253;-70
2022/06/26 12:58:29;;;;;;;1.83;0.45;;;;;;;;;;5017561;28;20132;-70
2022/06/26 13:00:55;;;;;;;3.67;0.55;;;;;;;;;;5018718;28;20120;-71
2022/06/26 13:03:21;;;;;;;0.90;0.50;;;;;;;;;;5017261;28;20076;-70
2022/06/26 13:05:47;;;;;;;0.80;0.50;;;;;;;;;;5018511;28;20064;-70
2022/06/26 13:08:14;;;;;;;0.57;0.52;;;;;;;;;;5017893;28;20033;-73
2022/06/26 13:10:41;;;;;;;0.40;0.40;;;;;;;;;;5019326;28;20095;-71
2022/06/26 13:13:06;;;;;;;2.30;0.50;;;;;;;;;;5018486;28;20120;-70
2022/06/26 13:15:32;;;;;;;2.92;0.50;;;;;;;;;;5017051;28;20049;-71
2022/06/26 13:17:57;;;;;;;0.52;0.52;;;;;;;;;;5017475;28;20041;-71
2022/06/26 13:20:23;;;;;;;1.50;0.60;;;;;;;;;;5016770;28;20065;-71
2022/06/26 13:22:48;;;;;;;1.98;0.70;;;;;;;;;;5016216;28;20061;-70
2022/06/26 13:25:14;;;;;;;1.23;0.60;;;;;;;;;;5016045;28;20120;-71
2022/06/26 13:27:39;;;;;;;1.30;0.75;;;;;;;;;;5018077;28;20454;-70
2022/06/26 13:30:06;;;;;;;1.42;0.80;;;;;;;;;;5016744;28;20065;-71
2022/06/26 13:32:32;;;;;;;0.70;0.52;;;;;;;;;;5019175;28;20045;-71
2022/06/26 13:34:57;;;;;;;0.70;0.70;;;;;;;;;;5018142;28;20071;-70
2022/06/26 13:37:22;;;;;;;0.80;0.65;;;;;;;;;;5016923;28;20041;-72
2022/06/26 13:39:48;;;;;;;1.15;0.80;;;;;;;;;;5017956;28;20029;-71
2022/06/26 13:42:13;;;;;;;1.10;0.60;;;;;;;;;;5022570;28;20113;-71
2022/06/26 13:44:39;;;;;;;0.75;0.50;;;;;;;;;;5022408;28;20410;-71
2022/06/26 13:47:04;;;;;;;2.92;0.60;;;;;;;;;;5022229;28;20049;-71
2022/06/26 13:49:30;;;;;;;0.82;0.57;;;;;;;;;;5020781;28;20566;-71
2022/06/26 13:51:55;;;;;;;0.50;0.50;;;;;;;;;;5022702;28;20061;-70
2022/06/26 13:54:21;;;;;;;0.80;0.60;;;;;;;;;;5019208;28;20167;-71
2022/06/26 13:56:46;;;;;;;4.05;0.63;;;;;;;;;;5022350;28;20057;-72
2022/06/26 13:59:12;;;;;;;1.65;0.70;;;;;;;;;;5019630;28;20041;-72
2022/06/26 14:01:38;;;;;;;0.60;0.60;;;;;;;;;;5022223;28;20049;-71
2022/06/26 14:04:03;;;;;;;2.60;0.90;;;;;;;;;;5020056;28;20059;-71
2022/06/26 14:06:29;;;;;;;2.55;0.60;;;;;;;;;;5021487;28;20056;-72
2022/06/26 14:08:54;;;;;;;0.60;0.60;;;;;;;;;;5021588;28;20242;-72
2022/06/26 14:11:21;;;;;;;2.70;0.50;;;;;;;;;;5020863;28;20516;-72
2022/06/26 14:13:47;;;;;;;0.70;0.70;;;;;;;;;;5022640;28;20067;-70
2022/06/26 14:16:13;;;;;;;0.40;0.40;;;;;;;;;;5021438;28;20033;-71
2022/06/26 14:18:38;;;;;;;2.63;0.63;;;;;;;;;;5021584;28;20056;-71
2022/06/26 14:21:07;;;;;;;2.13;0.60;;;;;;;;;;5002693;28;20037;-72
2022/06/26 14:26:18;;;;;;;0.70;0.70;;;;;;;;;;5017950;28;20049;-71
2022/06/26 14:28:43;;;;;;;0.75;0.60;;;;;;;;;;5020126;28;20041;-71
2022/06/26 14:31:09;;;;;;;0.47;0.47;;;;;;;;;;5020764;28;20559;-73
2022/06/26 14:33:34;;;;;;;1.20;0.50;;;;;;;;;;5021095;28;20136;-70
2022/06/26 14:36:02;;;;;;;0.73;0.50;;;;;;;;;;5019517;28;20116;-72
2022/06/26 14:38:29;;;;;;;0.70;0.55;;;;;;;;;;5021109;28;20526;-71
2022/06/26 14:40:59;;;;;;;0.50;0.50;;;;;;;;;;5018367;28;20025;-71
2022/06/26 14:43:25;;;;;;;0.60;0.50;;;;;;;;;;5020416;28;20048;-71
2022/06/26 14:45:51;;;;;;;2.45;0.60;;;;;;;;;;5021302;28;20114;-71
2022/06/26 14:48:17;;;;;;;0.70;0.70;;;;;;;;;;5020046;28;20062;-70
2022/06/26 14:50:42;;;;;;;0.85;0.50;;;;;;;;;;5018389;28;20041;-71
2022/06/26 14:53:09;;;;;;;0.50;0.50;;;;;;;;;;5019779;28;20757;-71
2022/06/26 14:55:35;;;;;;;2.45;0.55;;;;;;;;;;5021145;28;20041;-72
2022/06/26 14:58:01;;;;;;;2.50;0.80;;;;;;;;;;5020775;28;20393;-71
2022/06/26 15:00:27;;;;;;;2.53;0.57;;;;;;;;;;5021486;28;20060;-72
2022/06/26 15:02:53;;;;;;;4.32;0.50;;;;;;;;;;5021014;28;20529;-72
2022/06/26 15:05:19;;;;;;;0.63;0.63;;;;;;;;;;5018961;28;20049;-71
2022/06/26 15:07:44;;;;;;;1.17;0.55;;;;;;;;;;5020308;28;20103;-72